Flight Track Log - Related Links

Times and Time Zones

All times are in EDT time to prevent confusion due to time zone crossing. See the N319EE flight status page for this flight to view local times or setup timezone preferences in your user account.

Time Position Orientation Groundspeed Altitude Reporting Facility
EDT Latitude Longitude Course Direction KTS MPH feet Rate Location/Type
Wed 09:32:47 AM 43.5733 -70.3186 202° Southwest 182 209 2,700  Level Boston Center
Wed 09:33:48 AM 43.5608 -70.3947 257° West 203 234 4,300 1,839 Climbing Boston Center
Wed 09:34:51 AM 43.5444 -70.4686 253° West 202 232 6,500 2,081 Climbing Boston Center
Wed 09:35:52 AM 43.5297 -70.5353 253° West 186 214 8,600 2,132 Climbing Boston Center
Wed 09:36:52 AM 43.5142 -70.6058 253° West 181 208 10,800 1,887 Climbing Boston Center
Wed 09:37:00 AM 43.5084 -70.8192 249° West  Level FlightAware Approximate
Wed 09:37:56 AM 43.4997 -70.6706 253° West 180 207 12,500  Level Boston Center
Wed 09:38:56 AM 43.4856 -70.7367 254° West 179 206 14,200 1,400 Climbing Boston Center
Wed 09:39:56 AM 43.4700 -70.8097 254° West 197 227 15,300 1,190 Climbing Boston Center
Wed 09:40:57 AM 43.4517 -70.8914 253° West 205 236 16,600 1,258 Climbing Boston Center
Wed 09:42:00 AM 43.4350 -70.9686 253° West 207 238 17,900 968 Climbing Boston Center
Wed 09:43:01 AM 43.4183 -71.0456 253° West 210 242 18,600 829 Climbing Boston Center
Wed 09:44:03 AM 43.4017 -71.1233 254° West 216 249 19,600 689 Climbing Boston Center
Wed 09:45:03 AM 43.3839 -71.2061 254° West 220 253 20,000 198 Climbing Boston Center
Wed 09:46:04 AM 43.3631 -71.2981 253° West 248 285 20,000  Level Boston Center
Wed 09:47:08 AM 43.3422 -71.3925 253° West 256 295 20,000  Level Boston Center
Wed 09:48:08 AM 43.3228 -71.4872 254° West 257 296 20,000  Level Boston Center
Wed 09:49:09 AM 43.3031 -71.5783 253° West 256 295 20,000  Level Boston Center
Wed 09:50:09 AM 43.2786 -71.6825 252° West 246 283 20,000  Level Boston Center
Wed 09:51:11 AM 43.2583 -71.7683 252° West 240 276 20,000  Level Boston Center
Wed 09:52:11 AM 43.2383 -71.8556 253° West 240 276 20,000 -435 Level Boston Center
Wed 09:53:15 AM 43.2178 -71.9428 252° West 240 276 19,100 -1,065 Descending Boston Center
Wed 09:54:15 AM 43.1908 -72.0592 252° West 288 331 17,800 -1,339 Descending Boston Center
Wed 09:55:16 AM 43.1664 -72.1661 253° West 294 338 16,400 -893 Descending Boston Center
Wed 09:56:16 AM 43.1431 -72.2647 252° West 296 341 16,000 -194 Descending Boston Center
Wed 09:57:20 AM 43.1228 -72.3608 254° West 288 331 16,000  Level Boston Center
Wed 09:58:20 AM 43.0994 -72.4556 251° West 273 314 16,000  Level Boston Center
Wed 09:59:21 AM 43.0731 -72.5681 252° West 265 305 16,000  Level Boston Center
Wed 10:00:24 AM 43.0508 -72.6622 252° West 264 304 16,000  Level Boston Center
Wed 10:01:25 AM 43.0283 -72.7567 252° West 264 304 16,000  Level Boston Center
Wed 10:02:27 AM 43.0067 -72.8497 252° West 263 303 16,000  Level Boston Center
Wed 10:03:27 AM 42.9844 -72.9422 252° West 262 302 16,000  Level Boston Center
Wed 10:04:27 AM 42.9597 -73.0439 252° West 255 293 16,000  Level Boston Center
Wed 10:05:28 AM 42.9378 -73.1350 252° West 254 292 16,000  Level Boston Center
Wed 10:06:31 AM 42.9142 -73.2325 252° West 253 291 16,000  Level Boston Center
Wed 10:07:32 AM 42.8925 -73.3225 252° West 252 290 16,000  Level Boston Center
Wed 10:08:32 AM 42.8708 -73.4108 252° West 250 288 16,000  Level Boston Center
Wed 10:09:33 AM 42.8497 -73.4964 251° West 244 281 16,000  Level Boston Center
Wed 10:10:36 AM 42.8272 -73.5889 252° West 242 278 16,000  Level Boston Center
Wed 10:11:37 AM 42.8064 -73.6747 252° West 241 277 16,000  Level Boston Center
Wed 10:12:37 AM 42.7864 -73.7592 252° West 239 275 16,000  Level Boston Center
Wed 10:13:38 AM 42.7639 -73.8517 252° West 240 276 16,000  Level Boston Center
Wed 10:14:42 AM 42.7408 -73.9364 250° West 240 276 16,000  Level Boston Center
Wed 10:15:43 AM 42.7178 -74.0292 251° West 239 275 16,000  Level Boston Center
Wed 10:16:44 AM 42.6961 -74.1147 251° West 239 275 16,000  Level Boston Center
Wed 10:17:45 AM 42.6739 -74.2025 251° West 244 281 16,000  Level Boston Center
Wed 10:18:46 AM 42.6503 -74.2964 251° West 244 281 16,000  Level Boston Center
Wed 10:19:46 AM 42.6278 -74.3839 251° West 245 282 16,000 -48 Level Boston Center
Wed 10:20:50 AM 42.6067 -74.4697 252° West 243 280 15,900 -48 Descending Boston Center
Wed 10:21:51 AM 42.5836 -74.5569 250° West 243 280 15,900  Level Boston Center
Wed 10:22:51 AM 42.5600 -74.6503 251° West 243 280 15,900  Level Boston Center
Wed 10:23:53 AM 42.5381 -74.7358 251° West 243 280 15,900  Level Boston Center
Wed 10:24:53 AM 42.5167 -74.8169 250° West 243 280 15,900  Level Boston Center
Wed 10:25:57 AM 42.4944 -74.9044 251° West 244 281 15,900  Level Boston Center
Wed 10:26:56 AM 42.4714 -74.9914 250° West 244 281 15,900  Level Boston Center
Wed 10:27:59 AM 42.4494 -75.0781 251° West 244 281 15,900 -242 Level Boston Center
Wed 10:29:00 AM 42.4264 -75.1642 250° West 244 281 15,400 -885 Descending Boston Center
Wed 10:30:01 AM 42.3953 -75.2822 250° West 275 316 14,100 -1,171 Descending Boston Center
Wed 10:31:03 AM 42.3736 -75.3825 254° West 275 316 13,000 -1,082 Descending Boston Center
Wed 10:32:03 AM 42.3708 -75.4875 268° West 277 319 11,900 -1,065 Descending Boston Center
Wed 10:33:07 AM 42.3706 -75.5831 270° West 262 302 10,800 -1,056 Descending Boston Center
Wed 10:34:08 AM 42.3717 -75.6794 271° West 259 298 9,700 -1,279 Descending Boston Center
Wed 10:35:09 AM 42.3681 -75.7744 267° West 257 296 8,200 -1,835 Descending Boston Center
Wed 10:36:09 AM 42.3681 -75.8678 270° West 251 289 6,000 -2,182 Descending Boston Center
Wed 10:37:10 AM 42.3711 -75.9617 273° West 249 287 3,800 -1,392 Descending Boston Center
Wed 10:38:14 AM 42.3753 -76.0508 274° West 245 282 3,100 -336 Descending Boston Center
Wed 10:39:15 AM 42.3592 -76.1014 247° West 204 235 3,100  Level Boston Center
Wed 10:40:16 AM 42.3153 -76.0739 155° Southeast 155 178 3,100  Level Boston Center
Wed 10:41:17 AM 42.2844 -76.0458 146° Southeast 154 177 3,100 -198 Level Boston Center
Wed 10:42:17 AM 42.2508 -76.0150 146° Southeast 147 169 2,700 -397 Descending Boston Center
Wed 10:43:18 AM 42.2183 -75.9850 146° Southeast 142 163 2,300 -393 Descending Boston Center

Login

Don't have an account? Register now (free) for customized features, flight alerts, and more!